Time;durP1;ratioP1;P1;durP2;ratioP2;P2;SDS_P1;SDS_P2;PMS_P1;PMS_P2;Temp;Humidity;BMP_temperature;BMP_pressure;BME280_temperature;BME280_humidity;BME280_pressure;Samples;Min_cycle;Max_cycle;Signal;HPM_P1;HPM_P2
2022/04/14 00:01:58;;;;;;;29.42;20.10;;;;;;;10.52;85.81;101938.56;4976541;28;20030;-79
2022/04/14 00:04:24;;;;;;;26.48;18.23;;;;;;;10.55;85.74;101924.69;4981678;28;20449;-79
2022/04/14 00:06:49;;;;;;;27.75;18.77;;;;;;;10.56;85.21;101923.81;4985006;28;20037;-79
2022/04/14 00:09:14;;;;;;;22.73;16.08;;;;;;;10.53;84.05;101918.63;4960763;28;20030;-79
2022/04/14 00:11:40;;;;;;;21.90;15.23;;;;;;;10.48;83.82;101922.13;4981070;28;20479;-79
2022/04/14 00:14:06;;;;;;;19.80;14.23;;;;;;;10.44;83.66;101915.19;4982448;28;20027;-79
2022/04/14 00:16:31;;;;;;;28.30;19.08;;;;;;;10.46;85.63;101916.06;4980997;28;20037;-79
2022/04/14 00:18:57;;;;;;;30.27;21.15;;;;;;;10.52;87.06;101911.69;4984971;28;20109;-79
2022/04/14 00:21:22;;;;;;;30.13;18.13;;;;;;;10.55;86.54;101912.50;4966338;28;20401;-79
2022/04/14 00:23:47;;;;;;;20.80;15.30;;;;;;;10.54;85.52;101902.13;4981956;28;20026;-79
2022/04/14 00:26:13;;;;;;;41.42;18.73;;;;;;;10.56;86.82;101903.00;4979829;28;20058;-79
2022/04/14 00:28:38;;;;;;;67.00;16.98;;;;;;;10.58;87.86;101898.63;4985496;28;20037;-79
2022/04/14 00:31:04;;;;;;;30.65;15.68;;;;;;;10.56;87.02;101903.00;4977655;28;20037;-79
2022/04/14 00:33:32;;;;;;;28.70;14.43;;;;;;;10.56;86.68;101900.38;4981558;28;20033;-79
2022/04/14 00:35:58;;;;;;;29.58;13.20;;;;;;;10.50;85.63;101897.81;4977457;28;20026;-79
2022/04/14 00:38:24;;;;;;;44.42;12.93;;;;;;;10.43;85.70;101895.25;4983812;28;20034;-79
2022/04/14 00:40:50;;;;;;;27.48;12.32;;;;;;;10.44;86.29;101899.59;4979407;28;20034;-79
2022/04/14 00:43:16;;;;;;;22.48;12.05;;;;;;;10.42;85.24;101900.50;4987221;28;20023;-79
2022/04/14 00:45:42;;;;;;;15.38;11.90;;;;;;;10.36;84.19;101898.78;4983267;28;20034;-79
2022/04/14 00:48:08;;;;;;;16.02;12.13;;;;;;;10.30;84.26;101896.22;4980675;28;20064;-79
2022/04/14 00:50:33;;;;;;;16.50;12.43;;;;;;;10.25;84.14;101908.38;4979294;28;20038;-79
2022/04/14 00:52:59;;;;;;;15.57;11.57;;;;;;;10.21;83.88;101904.94;4982129;28;20490;-79
2022/04/14 00:55:25;;;;;;;20.90;14.05;;;;;;;10.21;84.89;101907.53;4979722;28;20057;-79
2022/04/14 00:57:51;;;;;;;22.75;13.77;;;;;;;10.25;86.32;101905.78;4979613;28;20505;-79
2022/04/14 01:00:16;;;;;;;21.08;13.38;;;;;;;10.25;86.33;101904.06;4981238;28;20041;-79
2022/04/14 01:02:41;;;;;;;16.00;13.23;;;;;;;10.29;86.60;101904.88;4980548;28;20023;-79
2022/04/14 01:05:09;;;;;;;16.48;12.88;;;;;;;10.32;86.44;101902.25;4982531;28;20041;-79
2022/04/14 01:07:36;;;;;;;22.30;13.88;;;;;;;10.33;86.84;101909.19;4986289;28;20130;-79
2022/04/14 01:10:02;;;;;;;20.13;14.00;;;;;;;10.34;86.81;101900.53;4984583;28;20481;-79
2022/04/14 01:12:28;;;;;;;23.40;14.38;;;;;;;10.35;87.11;101899.66;4974767;28;20049;-79
2022/04/14 01:14:54;;;;;;;25.08;16.63;;;;;;;10.37;87.18;101900.50;4981684;28;20023;-79
2022/04/14 01:17:19;;;;;;;21.23;16.05;;;;;;;10.39;87.42;101901.38;4981704;28;20034;-79
2022/04/14 01:19:44;;;;;;;25.00;18.50;;;;;;;10.41;87.77;101901.38;4979317;28;20393;-79
2022/04/14 01:22:30;;;;;;;25.30;17.77;;;;;;;10.41;87.82;101894.44;4980599;28;20054;-79
2022/04/14 01:24:56;;;;;;;28.45;18.25;;;;;;;10.44;88.15;101898.75;4978868;28;20034;-79
2022/04/14 01:27:25;;;;;;;29.38;18.45;;;;;;;10.44;88.33;101899.59;4983790;28;20062;-79
2022/04/14 01:29:51;;;;;;;26.17;18.20;;;;;;;10.42;87.75;101896.13;4978019;28;20026;-79
2022/04/14 01:32:18;;;;;;;27.45;18.38;;;;;;;10.42;88.25;101901.34;4981922;28;20080;-79
2022/04/14 01:34:43;;;;;;;35.33;18.88;;;;;;;10.42;88.37;101900.50;4974461;28;20030;-79
2022/04/14 01:37:09;;;;;;;49.15;16.75;;;;;;;10.41;88.29;101894.44;4976179;28;20544;-79
2022/04/14 01:39:34;;;;;;;37.67;15.40;;;;;;;10.40;87.83;101891.84;4975971;28;20091;-79
2022/04/14 01:41:59;;;;;;;42.22;16.05;;;;;;;10.38;87.82;101893.53;4976239;28;20098;-79
2022/04/14 01:44:24;;;;;;;26.92;18.45;;;;;;;10.38;88.33;101897.06;4979110;28;20034;-79
2022/04/14 01:46:50;;;;;;;29.17;19.65;;;;;;;10.42;88.70;101896.13;4985415;28;20030;-79
2022/04/14 01:49:15;;;;;;;29.55;19.42;;;;;;;10.44;88.88;101899.59;4976823;28;20039;-79
2022/04/14 01:51:40;;;;;;;28.20;19.58;;;;;;;10.44;88.86;101899.59;4974498;28;20466;-79
2022/04/14 01:54:06;;;;;;;30.63;19.17;;;;;;;10.44;88.68;101899.59;4977474;28;20105;-79
2022/04/14 01:56:32;;;;;;;31.60;18.63;;;;;;;10.43;88.67;101904.81;4982691;28;20038;-79
2022/04/14 01:58:58;;;;;;;38.53;15.55;;;;;;;10.39;87.91;101901.38;4978727;28;20030;-79
2022/04/14 02:01:23;;;;;;;50.47;16.20;;;;;;;10.35;87.81;101904.84;4979835;28;20030;-79
2022/04/14 02:03:49;;;;;;;56.33;15.63;;;;;;;10.32;87.69;101910.06;4983520;28;20036;-79
2022/04/14 02:06:15;;;;;;;51.38;14.95;;;;;;;10.27;87.32;101911.84;4983222;28;20390;-79
2022/04/14 02:08:41;;;;;;;40.55;15.02;;;;;;;10.24;87.46;101914.47;4977166;28;20121;-79
2022/04/14 02:11:07;;;;;;;27.80;16.65;;;;;;;10.23;87.71;101915.34;4977216;28;20454;-79
2022/04/14 02:13:33;;;;;;;25.33;16.92;;;;;;;10.24;87.84;101915.31;4977254;28;20030;-79
2022/04/14 02:15:59;;;;;;;32.42;17.20;;;;;;;10.24;88.27;101914.47;4984044;28;20030;-79
2022/04/14 02:18:24;;;;;;;27.75;18.25;;;;;;;10.23;88.35;101912.75;4965085;28;20362;-79
2022/04/14 02:20:50;;;;;;;28.35;19.02;;;;;;;10.24;88.43;101917.09;4983475;28;20035;-79
2022/04/14 02:23:15;;;;;;;31.13;18.88;;;;;;;10.24;88.65;101911.88;4979002;28;20587;-79
2022/04/14 02:25:41;;;;;;;31.55;20.02;;;;;;;10.25;89.01;101914.47;4975636;28;20042;-78
2022/04/14 02:28:06;;;;;;;35.00;19.67;;;;;;;10.25;88.80;101914.47;4978278;28;20135;-79
2022/04/14 02:30:33;;;;;;;29.83;18.08;;;;;;;10.25;88.83;101918.78;4976331;28;20040;-79
2022/04/14 02:32:59;;;;;;;27.80;18.92;;;;;;;10.25;89.00;101918.78;4961876;28;20043;-79
2022/04/14 02:35:24;;;;;;;47.80;20.52;;;;;;;10.26;89.28;101915.31;4975333;28;20027;-79
2022/04/14 02:37:49;;;;;;;36.33;19.80;;;;;;;10.29;89.31;101920.50;4979011;28;20038;-79
2022/04/14 02:40:14;;;;;;;54.85;20.58;;;;;;;10.29;89.40;101925.69;4980368;28;20152;-79
2022/04/14 02:42:41;;;;;;;57.03;16.73;;;;;;;10.26;88.45;101925.72;4988553;28;20076;-79
2022/04/14 02:45:07;;;;;;;24.92;15.88;;;;;;;10.16;86.86;101923.19;4978282;28;20039;-79
2022/04/14 02:47:35;;;;;;;21.23;15.85;;;;;;;10.09;86.42;101931.88;4984427;28;20038;-79
2022/04/14 02:50:00;;;;;;;17.95;13.23;;;;;;;10.01;85.95;101926.72;4963777;28;20026;-78
2022/04/14 02:52:25;;;;;;;17.30;13.30;;;;;;;9.96;85.76;101923.31;4983110;28;20065;-79
2022/04/14 02:54:50;;;;;;;20.65;14.35;;;;;;;9.93;85.73;101931.13;4978825;28;20080;-79
2022/04/14 02:57:16;;;;;;;23.40;14.63;;;;;;;9.90;85.68;101919.88;4983319;28;20097;-79
2022/04/14 02:59:41;;;;;;;23.17;15.55;;;;;;;9.83;85.41;101922.50;4983053;28;20041;-79
2022/04/14 03:02:06;;;;;;;46.10;14.98;;;;;;;9.85;86.89;101920.78;4979731;28;20485;-79
2022/04/14 03:04:31;;;;;;;47.70;15.30;;;;;;;9.86;87.31;101922.50;4986105;28;20045;-79
2022/04/14 03:06:57;;;;;;;67.93;14.32;;;;;;;9.87;87.67;101919.03;4977530;28;20539;-79
2022/04/14 03:09:23;;;;;;;43.97;14.35;;;;;;;9.88;87.68;101914.69;4980993;28;20030;-79
2022/04/14 03:11:49;;;;;;;40.15;14.57;;;;;;;9.86;87.58;101919.03;4979346;28;20386;-79
2022/04/14 03:14:14;;;;;;;51.88;14.77;;;;;;;9.85;87.55;101915.56;4988401;28;20037;-79
2022/04/14 03:16:40;;;;;;;26.80;13.38;;;;;;;9.82;87.44;101918.19;4979418;28;20033;-79
2022/04/14 03:19:05;;;;;;;29.98;13.13;;;;;;;9.81;87.44;101913.84;4978992;28;20469;-79
2022/04/14 03:21:30;;;;;;;26.38;13.93;;;;;;;9.78;87.15;101913.88;4980720;28;20482;-79
2022/04/14 03:23:55;;;;;;;19.35;12.77;;;;;;;9.76;87.11;101918.19;4980214;28;20393;-79
2022/04/14 03:26:21;;;;;;;53.42;13.43;;;;;;;9.71;86.91;101922.59;4979107;28;20478;-79
2022/04/14 03:28:46;;;;;;;70.70;12.80;;;;;;;9.66;86.49;101925.19;4978771;28;20043;-79
2022/04/14 03:31:11;;;;;;;33.10;12.40;;;;;;;9.62;86.39;101925.19;4979308;28;20097;-79
2022/04/14 03:33:37;;;;;;;34.78;13.07;;;;;;;9.57;86.28;101933.03;4983533;28;20050;-79
2022/04/14 03:36:03;;;;;;;32.45;12.93;;;;;;;9.53;85.93;101928.69;4982548;28;20397;-79
2022/04/14 03:38:28;;;;;;;63.28;13.05;;;;;;;9.47;85.40;101934.78;4977964;28;20033;-79
2022/04/14 03:40:53;;;;;;;106.65;13.77;;;;;;;9.37;85.19;101925.31;4982707;28;20033;-79
2022/04/14 03:43:19;;;;;;;65.22;14.15;;;;;;;9.34;86.14;101930.50;4985955;28;20117;-79
2022/04/14 03:45:44;;;;;;;23.33;13.52;;;;;;;9.31;86.23;101923.56;4981583;28;20041;-79
2022/04/14 03:48:09;;;;;;;83.45;14.60;;;;;;;9.30;86.74;101926.19;4980813;28;20046;-79
2022/04/14 03:50:35;;;;;;;38.60;13.50;;;;;;;9.30;86.29;101931.38;4975445;28;20129;-79
2022/04/14 03:53:00;;;;;;;58.55;14.95;;;;;;;9.29;86.19;101927.06;4982418;28;20030;-79
2022/04/14 03:55:26;;;;;;;90.05;16.50;;;;;;;9.30;87.70;101921.00;4981725;28;20025;-79
2022/04/14 03:57:51;;;;;;;100.88;16.85;;;;;;;9.32;88.04;101927.06;4981418;28;20042;-79
2022/04/14 04:00:17;;;;;;;82.63;16.92;;;;;;;9.32;88.38;101925.31;4981705;28;20057;-78
2022/04/14 04:02:42;;;;;;;108.53;17.45;;;;;;;9.35;88.62;101924.44;4978441;28;20419;-79
2022/04/14 04:05:08;;;;;;;47.58;17.63;;;;;;;9.36;88.90;101921.84;4984306;28;20023;-79
2022/04/14 04:07:33;;;;;;;58.75;17.35;;;;;;;9.39;89.19;101929.63;4979115;28;20030;-79
2022/04/14 04:09:58;;;;;;;41.85;18.27;;;;;;;9.44;89.30;101928.75;4979550;28;20085;-78
2022/04/14 04:12:24;;;;;;;30.05;16.83;;;;;;;9.46;89.40;101927.88;4980916;28;20022;-79
2022/04/14 04:14:49;;;;;;;28.00;16.40;;;;;;;9.47;88.96;101928.75;4979306;28;20038;-79
2022/04/14 04:17:16;;;;;;;43.67;15.93;;;;;;;9.45;87.94;101935.69;4978359;28;20026;-79
2022/04/14 04:19:42;;;;;;;37.53;15.63;;;;;;;9.37;87.65;101940.91;4981376;28;20034;-79
2022/04/14 04:22:08;;;;;;;23.50;15.30;;;;;;;9.33;87.29;101936.56;4961141;28;20473;-78
2022/04/14 04:24:33;;;;;;;40.75;15.10;;;;;;;9.27;86.93;101943.50;4980369;28;20062;-79
2022/04/14 04:26:58;;;;;;;41.95;14.40;;;;;;;9.21;86.56;101945.25;4960448;28;20061;-79
2022/04/14 04:29:23;;;;;;;29.98;13.80;;;;;;;9.17;86.50;101941.81;4978097;28;20393;-78
2022/04/14 04:31:49;;;;;;;27.02;14.77;;;;;;;9.13;86.17;101942.66;4977324;28;20027;-78
2022/04/14 04:34:14;;;;;;;31.17;15.02;;;;;;;9.09;86.50;101946.13;4982622;28;20062;-79
2022/04/14 04:36:39;;;;;;;32.70;14.43;;;;;;;9.05;86.50;101947.88;4981189;28;20492;-79
2022/04/14 04:39:04;;;;;;;69.32;16.30;;;;;;;9.05;87.78;101947.03;4975699;28;20094;-79
2022/04/14 04:41:30;;;;;;;70.85;15.73;;;;;;;9.08;88.38;101949.59;4976959;28;20056;-78
2022/04/14 04:43:56;;;;;;;64.53;16.33;;;;;;;9.11;88.60;101957.38;4985695;28;20042;-78
2022/04/14 04:46:21;;;;;;;64.28;15.88;;;;;;;9.13;88.35;101960.00;4976282;28;20461;-78
2022/04/14 04:48:46;;;;;;;31.80;16.23;;;;;;;9.12;88.25;101953.91;4975384;28;20381;-78
2022/04/14 04:51:11;;;;;;;28.38;16.40;;;;;;;9.12;87.84;101959.13;4974736;28;20125;-79
2022/04/14 04:53:37;;;;;;;30.40;15.60;;;;;;;9.10;88.05;101960.84;4979122;28;20033;-79
2022/04/14 04:56:02;;;;;;;29.80;15.48;;;;;;;9.09;87.98;101959.13;4979158;28;20359;-79
2022/04/14 04:58:27;;;;;;;30.35;15.30;;;;;;;9.09;88.07;101961.72;4979899;28;20054;-79
2022/04/14 05:00:53;;;;;;;63.78;17.63;;;;;;;9.10;88.53;101966.91;4979745;28;20034;-79
2022/04/14 05:03:19;;;;;;;52.58;17.23;;;;;;;9.13;88.86;101970.38;4984696;28;20035;-79
2022/04/14 05:05:44;;;;;;;61.95;17.10;;;;;;;9.15;88.97;101974.69;4982048;28;20055;-79
2022/04/14 05:08:09;;;;;;;55.58;16.42;;;;;;;9.18;88.97;101969.50;4976299;28;20031;-78
2022/04/14 05:10:35;;;;;;;63.03;17.60;;;;;;;9.20;89.11;101974.69;4959997;28;20014;-79
2022/04/14 05:13:01;;;;;;;59.15;17.45;;;;;;;9.22;89.01;101972.94;4963050;28;20088;-79
2022/04/14 05:15:26;;;;;;;70.25;17.40;;;;;;;9.23;88.84;101972.09;4987334;28;20045;-78
2022/04/14 05:17:52;;;;;;;82.38;18.60;;;;;;;9.23;88.90;101972.94;4961542;28;20389;-79
2022/04/14 05:20:17;;;;;;;64.15;17.77;;;;;;;9.23;88.93;101972.94;4975947;28;20031;-79
2022/04/14 05:22:43;;;;;;;48.92;18.13;;;;;;;9.23;88.98;101978.13;4977271;28;20450;-78
2022/04/14 05:25:08;;;;;;;43.75;17.48;;;;;;;9.22;89.17;101975.53;4973613;28;20350;-79
2022/04/14 05:27:33;;;;;;;48.55;17.58;;;;;;;9.23;88.97;101980.72;4980088;28;20397;-79
2022/04/14 05:29:59;;;;;;;56.03;17.95;;;;;;;9.22;88.98;101978.13;4982123;28;20108;-79
2022/04/14 05:32:24;;;;;;;57.10;17.70;;;;;;;9.21;89.82;101974.69;4979763;28;20078;-79
2022/04/14 05:34:49;;;;;;;38.60;18.13;;;;;;;9.24;88.85;101982.44;4974023;28;20034;-79
2022/04/14 05:37:15;;;;;;;60.05;18.60;;;;;;;9.27;89.12;101989.41;4984954;28;20023;-79
2022/04/14 05:39:40;;;;;;;50.97;17.85;;;;;;;9.26;88.98;101985.91;4975572;28;20018;-79
2022/04/14 05:42:05;;;;;;;52.95;18.83;;;;;;;9.27;88.98;101985.03;4984084;28;20029;-79
2022/04/14 05:44:31;;;;;;;74.55;19.25;;;;;;;9.29;88.94;101997.16;4982643;28;20031;-79
2022/04/14 05:46:56;;;;;;;75.18;18.90;;;;;;;9.29;89.11;101991.97;4981126;28;20033;-79
2022/04/14 05:49:21;;;;;;;46.25;18.38;;;;;;;9.32;89.22;101998.00;4992979;28;20393;-79
2022/04/14 05:51:47;;;;;;;57.03;17.80;;;;;;;9.37;89.17;102003.22;4977150;28;20031;-79
2022/04/14 05:54:12;;;;;;;47.33;17.80;;;;;;;9.40;89.23;102000.59;4973278;28;20467;-79
2022/04/14 05:56:37;;;;;;;71.47;19.15;;;;;;;9.40;89.23;102000.59;4974266;28;20039;-79
2022/04/14 05:59:03;;;;;;;53.17;18.80;;;;;;;9.43;89.07;102003.19;4977086;28;20105;-79
2022/04/14 06:01:28;;;;;;;48.00;17.95;;;;;;;9.47;88.81;102010.13;4984648;28;20052;-79
2022/04/14 06:03:53;;;;;;;37.83;18.42;;;;;;;9.48;88.57;102013.59;4975956;28;20030;-79
2022/04/14 06:06:18;;;;;;;34.90;18.83;;;;;;;9.49;88.36;102010.97;4973192;28;20035;-79
2022/04/14 06:08:44;;;;;;;27.98;17.67;;;;;;;9.51;88.55;102014.44;4973538;28;20027;-79
2022/04/14 06:11:10;;;;;;;31.73;18.63;;;;;;;9.52;88.48;102016.19;4972663;28;20113;-79
2022/04/14 06:13:36;;;;;;;37.42;19.27;;;;;;;9.56;88.40;102012.69;4985310;28;20509;-79
2022/04/14 06:16:02;;;;;;;27.90;18.73;;;;;;;9.59;88.52;102013.53;4992417;28;20317;-79
2022/04/14 06:18:27;;;;;;;26.75;18.55;;;;;;;9.62;88.47;102009.22;4975516;28;20023;-79
2022/04/14 06:20:54;;;;;;;33.10;18.45;;;;;;;9.66;88.41;102007.47;4973100;28;20037;-79
2022/04/14 06:23:19;;;;;;;27.38;19.27;;;;;;;9.66;88.44;102008.31;4972927;28;20127;-79
2022/04/14 06:25:49;;;;;;;28.00;19.40;;;;;;;9.69;88.19;102000.53;4972907;28;20442;-79
2022/04/14 06:28:14;;;;;;;26.75;19.05;;;;;;;9.71;88.46;102006.59;4973044;28;20057;-79
2022/04/14 06:30:39;;;;;;;27.25;19.70;;;;;;;9.75;88.53;102006.59;4973423;28;20466;-79
2022/04/14 06:33:05;;;;;;;27.67;19.42;;;;;;;9.78;88.61;102010.03;4978096;28;20120;-79
2022/04/14 06:35:31;;;;;;;29.42;20.38;;;;;;;9.80;88.64;102013.47;4973478;28;20358;-79
2022/04/14 06:37:57;;;;;;;27.30;19.73;;;;;;;9.82;88.39;102009.16;4972996;28;20030;-79
2022/04/14 06:40:23;;;;;;;30.90;20.75;;;;;;;9.86;88.82;102015.19;4975776;28;20038;-79
2022/04/14 06:42:49;;;;;;;28.50;20.05;;;;;;;9.89;88.68;102020.38;4975428;28;20129;-79
2022/04/14 06:45:15;;;;;;;29.75;21.17;;;;;;;9.92;88.62;102024.69;4972577;28;20030;-79
2022/04/14 06:47:40;;;;;;;30.55;20.88;;;;;;;9.93;88.38;102023.81;4973914;28;20046;-79
2022/04/14 06:50:06;;;;;;;32.15;22.05;;;;;;;9.96;88.49;102026.41;4977141;28;20026;-79
2022/04/14 06:52:32;;;;;;;31.23;22.13;;;;;;;10.00;88.71;102023.78;4983058;28;20027;-79
2022/04/14 06:54:58;;;;;;;29.40;21.02;;;;;;;10.05;88.49;102023.78;4973193;28;20026;-79
2022/04/14 06:57:23;;;;;;;31.75;21.60;;;;;;;10.10;88.88;102029.81;4975993;28;20089;-78
2022/04/14 06:59:48;;;;;;;31.45;21.58;;;;;;;10.14;88.98;102026.34;4974935;28;20433;-78
2022/04/14 07:02:14;;;;;;;29.95;20.65;;;;;;;10.18;88.79;102024.59;4975698;28;20023;-79
2022/04/14 07:04:39;;;;;;;29.00;20.27;;;;;;;10.22;88.44;102025.44;4976882;28;20050;-79
2022/04/14 07:07:04;;;;;;;31.35;21.52;;;;;;;10.28;88.72;102022.81;4972549;28;20026;-79
2022/04/14 07:09:32;;;;;;;31.23;20.65;;;;;;;10.31;88.29;102018.47;4974537;28;20042;-79
2022/04/14 07:11:59;;;;;;;31.02;20.40;;;;;;;10.36;87.99;102021.03;4991685;28;20027;-79
2022/04/14 07:14:26;;;;;;;30.25;20.42;;;;;;;10.40;88.12;102017.59;4991695;28;20027;-79
2022/04/14 07:16:51;;;;;;;31.20;20.85;;;;;;;10.46;88.02;102016.69;4981714;28;20029;-79
2022/04/14 07:19:16;;;;;;;31.63;20.55;;;;;;;10.49;87.72;102016.66;4955241;28;20421;-79
2022/04/14 07:21:41;;;;;;;30.92;21.20;;;;;;;10.55;87.51;102021.81;4972410;28;20054;-79
2022/04/14 07:24:07;;;;;;;32.70;20.85;;;;;;;10.61;87.72;102020.88;4976759;28;20031;-79
2022/04/14 07:26:32;;;;;;;32.28;21.10;;;;;;;10.69;88.31;102019.13;4975590;28;20031;-78
2022/04/14 07:28:57;;;;;;;31.08;20.60;;;;;;;10.74;88.16;102026.88;4975945;28;20398;-79
2022/04/14 07:31:23;;;;;;;30.23;19.65;;;;;;;10.81;87.75;102027.69;4975731;28;20043;-79
2022/04/14 07:33:48;;;;;;;29.15;19.63;;;;;;;10.86;88.13;102029.38;4976924;28;20034;-79
2022/04/14 07:36:18;;;;;;;29.65;18.45;;;;;;;10.92;87.74;102038.91;4977522;28;20029;-79
2022/04/14 07:38:43;;;;;;;27.10;18.25;;;;;;;10.98;86.76;102041.44;4975900;28;20035;-79
2022/04/14 07:41:09;;;;;;;26.80;18.90;;;;;;;11.03;86.29;102039.69;4975807;28;20088;-79
2022/04/14 07:43:34;;;;;;;24.98;17.27;;;;;;;11.09;86.54;102038.75;4975670;28;20106;-79
2022/04/14 07:45:59;;;;;;;28.05;18.30;;;;;;;11.16;85.89;102044.78;4975735;28;20026;-79
2022/04/14 07:48:24;;;;;;;26.55;17.40;;;;;;;11.22;85.85;102036.91;4975847;28;20022;-79
2022/04/14 07:50:50;;;;;;;24.33;17.92;;;;;;;11.27;85.21;102040.34;4978178;28;20431;-79
2022/04/14 07:53:15;;;;;;;23.20;16.23;;;;;;;11.33;85.32;102036.81;4975546;28;20042;-79
2022/04/14 07:55:40;;;;;;;23.83;17.23;;;;;;;11.38;85.33;102038.50;4975497;28;20034;-79
2022/04/14 07:58:07;;;;;;;24.77;17.52;;;;;;;11.46;85.44;102045.34;4975474;28;20031;-79
2022/04/14 08:00:33;;;;;;;25.33;17.15;;;;;;;11.55;85.83;102045.28;4975405;28;20046;-79
2022/04/14 08:03:00;;;;;;;24.45;16.70;;;;;;;11.62;85.56;102038.25;4975391;28;20030;-79
2022/04/14 08:05:36;;;;;;;24.25;16.88;;;;;;;11.69;85.05;102046.00;4975445;28;20038;-79
2022/04/14 08:08:03;;;;;;;24.45;14.95;;;;;;;11.78;84.04;102049.38;4975412;28;20062;-79
2022/04/14 08:10:28;;;;;;;19.02;13.10;;;;;;;11.82;82.06;102045.84;4975232;28;20484;-79
2022/04/14 08:12:54;;;;;;;21.67;13.35;;;;;;;11.89;82.05;102047.50;4975045;28;20070;-79
2022/04/14 08:15:19;;;;;;;19.40;13.38;;;;;;;11.96;81.33;102049.16;4975267;28;20414;-79
2022/04/14 08:17:44;;;;;;;19.85;12.68;;;;;;;12.01;81.57;102040.44;4975240;28;20061;-78
2022/04/14 08:20:12;;;;;;;18.42;13.45;;;;;;;12.08;82.04;102048.16;4975093;28;20033;-79
2022/04/14 08:22:52;;;;;;;19.70;13.50;;;;;;;12.14;81.97;102047.22;4975009;28;20055;-79
2022/04/14 08:25:20;;;;;;;21.38;13.45;;;;;;;12.21;81.81;102043.66;4976051;28;20402;-79
2022/04/14 08:27:47;;;;;;;18.60;12.93;;;;;;;12.25;81.38;102040.13;4974995;28;20030;-79
2022/04/14 08:30:13;;;;;;;19.40;10.90;;;;;;;12.30;79.42;102037.47;4957352;28;20049;-79
2022/04/14 08:32:39;;;;;;;16.15;11.65;;;;;;;12.37;80.04;102044.34;4975819;28;20026;-79
2022/04/14 08:35:04;;;;;;;18.88;12.57;;;;;;;12.44;79.76;102042.50;4974630;28;20146;-79
2022/04/14 08:37:30;;;;;;;17.48;11.70;;;;;;;12.49;79.15;102039.81;4974739;28;20113;-79
2022/04/14 08:39:57;;;;;;;18.15;11.60;;;;;;;12.56;78.36;102044.91;4957285;28;20307;-79
2022/04/14 08:42:29;;;;;;;20.83;11.63;;;;;;;12.59;77.64;102039.66;4978149;28;20325;-79
2022/04/14 08:45:03;;;;;;;16.77;10.80;;;;;;;12.65;76.21;102038.69;4992926;28;20485;-78
2022/04/14 08:47:29;;;;;;;13.95;10.32;;;;;;;12.73;77.49;102051.63;4980516;28;20027;-78
2022/04/14 08:49:56;;;;;;;17.75;10.45;;;;;;;12.80;76.73;102042.84;4976568;28;20026;-79
2022/04/14 08:52:22;;;;;;;16.67;10.90;;;;;;;12.86;75.64;102045.31;4976092;28;20086;-79
2022/04/14 08:54:49;;;;;;;15.98;10.50;;;;;;;12.94;76.54;102039.13;4974117;28;20022;-80
2022/04/14 08:57:16;;;;;;;18.48;10.88;;;;;;;12.98;75.26;102038.19;4960119;28;20039;-79
2022/04/14 08:59:46;;;;;;;15.95;10.77;;;;;;;13.04;75.10;102040.69;4957362;28;20034;-79
2022/04/14 09:02:16;;;;;;;15.93;9.43;;;;;;;13.11;76.56;102041.44;4975344;28;20443;-79
2022/04/14 09:04:42;;;;;;;15.18;8.70;;;;;;;13.14;73.39;102047.50;4977681;28;20118;-79
2022/04/14 09:07:08;;;;;;;15.02;9.23;;;;;;;13.20;73.95;102036.91;4974872;28;20109;-79
2022/04/14 09:09:33;;;;;;;12.98;9.00;;;;;;;13.24;72.85;102047.31;4979516;28;20034;-79
2022/04/14 09:11:59;;;;;;;11.18;7.47;;;;;;;13.29;72.86;102045.50;4975005;28;20467;-80
2022/04/14 09:14:24;;;;;;;14.98;8.05;;;;;;;13.36;74.12;102041.88;4976789;28;20054;-79
2022/04/14 09:16:50;;;;;;;13.43;8.40;;;;;;;13.40;72.82;102038.34;4974046;28;20034;-79
2022/04/14 09:19:16;;;;;;;11.55;7.05;;;;;;;13.45;72.39;102036.53;4974481;28;20097;-79
2022/04/14 09:21:58;;;;;;;10.90;6.40;;;;;;;13.50;73.53;102039.03;4975753;28;20042;-79
2022/04/14 09:24:43;;;;;;;11.45;7.55;;;;;;;13.56;72.77;102033.72;4977160;28;20390;-80
2022/04/14 09:27:21;;;;;;;11.70;6.65;;;;;;;13.60;71.51;102035.34;4973828;28;20529;-79
2022/04/14 09:29:47;;;;;;;9.57;6.07;;;;;;;13.65;69.29;102030.06;4983540;28;20473;-80
2022/04/14 09:32:26;;;;;;;11.15;7.38;;;;;;;13.72;70.86;102033.41;4977056;28;20042;-79
2022/04/14 09:34:52;;;;;;;10.43;6.30;;;;;;;13.74;69.52;102029.03;4975840;28;20486;-80
2022/04/14 09:37:18;;;;;;;13.25;6.53;;;;;;;13.78;69.25;102025.41;4973680;28;20041;-79
2022/04/14 09:39:49;;;;;;;10.88;6.57;;;;;;;13.83;70.12;102025.34;4973916;28;20061;-79
2022/04/14 09:42:15;;;;;;;9.20;5.70;;;;;;;13.88;68.66;102026.09;4975204;28;20178;-79
2022/04/14 09:44:40;;;;;;;9.77;5.80;;;;;;;13.92;66.57;102017.31;4975016;28;20102;-79
2022/04/14 09:47:05;;;;;;;9.50;5.82;;;;;;;13.99;66.83;102021.53;4973610;28;20019;-79
2022/04/14 09:49:30;;;;;;;7.20;5.00;;;;;;;14.03;66.49;102023.16;4975244;28;20375;-79
2022/04/14 09:51:56;;;;;;;9.10;5.72;;;;;;;14.09;67.86;102014.34;4975696;28;20392;-78
2022/04/14 09:54:28;;;;;;;9.68;5.85;;;;;;;14.15;67.75;102010.72;4979241;28;20031;-79
2022/04/14 09:56:55;;;;;;;7.85;5.18;;;;;;;14.18;64.98;102010.63;4957142;28;20390;-79
2022/04/14 09:59:26;;;;;;;7.80;4.32;;;;;;;14.22;64.16;102007.94;4975912;28;20035;-79
2022/04/14 10:02:12;;;;;;;7.20;4.80;;;;;;;14.27;64.54;101999.97;4976073;28;20030;-80
2022/04/14 10:04:48;;;;;;;7.63;4.82;;;;;;;14.31;62.84;102006.00;4956496;28;20027;-80
2022/04/14 10:07:15;;;;;;;7.60;5.00;;;;;;;14.39;64.49;102001.47;4973083;28;20038;-80
2022/04/14 10:09:42;;;;;;;7.18;4.50;;;;;;;14.45;61.71;102005.69;4973198;28;20034;-80
2022/04/14 10:12:17;;;;;;;5.70;3.97;;;;;;;14.48;64.56;101993.38;4975409;28;20029;-80
2022/04/14 10:14:44;;;;;;;6.13;4.40;;;;;;;14.55;64.05;102008.06;4977260;28;20125;-79
2022/04/14 10:17:10;;;;;;;5.15;3.40;;;;;;;14.62;61.29;102002.66;4983038;28;20233;-79
2022/04/14 10:19:36;;;;;;;5.55;4.20;;;;;;;14.69;60.84;102006.88;4974634;28;20261;-80
2022/04/14 10:22:04;;;;;;;5.40;3.13;;;;;;;14.75;59.80;102013.72;4978843;28;20042;-80
2022/04/14 10:24:33;;;;;;;6.15;3.50;;;;;;;14.82;60.38;102015.31;4978285;28;20093;-80
2022/04/14 10:27:00;;;;;;;6.20;3.90;;;;;;;14.92;60.36;102034.28;4984061;28;20047;-80
2022/04/14 10:29:26;;;;;;;6.68;4.18;;;;;;;14.99;60.59;102027.97;4981825;28;20030;-79
2022/04/14 10:31:54;;;;;;;6.78;4.05;;;;;;;15.07;59.75;102033.03;4975997;28;20022;-79
2022/04/14 10:34:20;;;;;;;7.70;5.00;;;;;;;15.15;59.82;102038.94;4956078;28;20049;-79
2022/04/14 10:36:47;;;;;;;7.50;4.68;;;;;;;15.20;59.66;102026.56;4973377;28;20027;-79
2022/04/14 10:39:14;;;;;;;8.73;4.80;;;;;;;15.26;59.51;102033.44;4979953;28;20026;-79
2022/04/14 10:41:44;;;;;;;9.73;4.88;;;;;;;15.30;60.10;102035.91;4977402;28;20048;-79
2022/04/14 10:44:10;;;;;;;5.88;3.90;;;;;;;15.36;57.99;102028.81;4978361;28;20030;-79
2022/04/14 10:46:40;;;;;;;5.68;3.72;;;;;;;15.44;60.06;102034.69;4974558;28;20073;-80
2022/04/14 10:49:14;;;;;;;7.40;3.70;;;;;;;15.48;58.80;102025.84;4975463;28;20023;-79
2022/04/14 10:51:40;;;;;;;12.63;3.97;;;;;;;15.53;58.62;102031.81;4974316;28;20093;-79
2022/04/14 10:54:11;;;;;;;5.70;3.70;;;;;;;15.60;56.81;102033.34;4975425;28;20038;-82
2022/04/14 10:56:42;;;;;;;8.65;3.65;;;;;;;15.68;57.94;102032.28;4975387;28;20030;-79
2022/04/14 10:59:14;;;;;;;6.13;3.50;;;;;;;15.75;56.93;102029.44;4978469;28;20046;-80
2022/04/14 11:01:46;;;;;;;5.22;3.20;;;;;;;15.82;57.24;102026.63;4978035;28;20080;-80
2022/04/14 11:04:21;;;;;;;7.72;3.33;;;;;;;15.90;58.61;102024.69;4978211;28;20054;-80
2022/04/14 11:06:47;;;;;;;5.68;3.45;;;;;;;15.99;56.82;102020.94;4962191;28;20022;-80
2022/04/14 11:09:41;;;;;;;6.28;3.22;;;;;;;16.13;59.48;102024.00;4985017;28;20113;-80
2022/04/14 11:12:11;;;;;;;7.72;3.13;;;;;;;16.26;56.70;102019.25;4979658;28;20034;-80